createdAt,value
2022-12-15T00:00:59.886Z,2.20
2022-12-15T00:03:31.844Z,2.21
2022-12-15T00:06:03.666Z,2.21
2022-12-15T00:08:35.133Z,2.21
2022-12-15T00:11:06.633Z,2.17
2022-12-15T00:13:38.025Z,2.21
2022-12-15T00:16:09.509Z,2.21
2022-12-15T00:18:40.968Z,2.19
2022-12-15T00:21:12.405Z,2.15
2022-12-15T00:23:44.300Z,2.08
2022-12-15T00:26:15.742Z,2.05
2022-12-15T00:28:47.165Z,2.05
2022-12-15T00:31:18.622Z,2.01
2022-12-15T00:33:50.061Z,1.96
2022-12-15T00:36:21.518Z,1.92
2022-12-15T00:38:52.975Z,1.91
2022-12-15T00:41:24.364Z,1.89
2022-12-15T00:43:55.768Z,1.80
2022-12-15T00:46:27.268Z,1.80
2022-12-15T00:48:58.896Z,1.77
2022-12-15T00:51:30.329Z,1.75
2022-12-15T00:54:01.770Z,1.74
2022-12-15T00:56:33.180Z,1.78
2022-12-15T00:59:04.666Z,1.85
2022-12-15T01:01:36.327Z,1.87
2022-12-15T01:04:07.901Z,1.88
2022-12-15T01:06:39.488Z,1.88
2022-12-15T01:09:12.910Z,1.91
2022-12-15T01:11:45.394Z,1.88
2022-12-15T01:14:16.824Z,1.96
2022-12-15T01:16:48.228Z,1.97
2022-12-15T01:19:19.717Z,1.94
2022-12-15T01:21:51.143Z,1.86
2022-12-15T01:24:22.775Z,1.77
2022-12-15T01:26:54.173Z,1.75
2022-12-15T01:29:25.920Z,1.74
2022-12-15T01:31:57.446Z,1.74
2022-12-15T01:34:29.057Z,1.68
2022-12-15T01:37:00.532Z,1.66
2022-12-15T01:39:31.949Z,1.59
2022-12-15T01:42:03.553Z,1.59
2022-12-15T01:44:36.764Z,1.53
2022-12-15T01:47:13.421Z,1.47
2022-12-15T01:49:44.941Z,1.40
2022-12-15T01:52:16.876Z,1.38
2022-12-15T01:54:53.917Z,1.33
2022-12-15T01:57:31.573Z,1.30
2022-12-15T02:00:06.257Z,1.19
2022-12-15T02:02:40.584Z,1.18
2022-12-15T02:05:12.312Z,1.23
2022-12-15T02:07:43.771Z,1.30
2022-12-15T02:10:15.456Z,1.30
2022-12-15T02:16:00.023Z,1.26
2022-12-15T02:19:00.979Z,1.25
2022-12-15T02:21:41.673Z,1.22
2022-12-15T02:24:24.872Z,1.22
2022-12-15T02:27:15.769Z,1.26
2022-12-15T02:30:05.869Z,1.20
2022-12-15T02:32:43.194Z,1.18
2022-12-15T02:35:28.552Z,1.19
2022-12-15T02:38:00.577Z,1.19
2022-12-15T02:40:32.168Z,1.19
2022-12-15T02:43:06.121Z,1.18
2022-12-15T02:45:59.543Z,1.18
2022-12-15T02:48:44.069Z,1.11
2022-12-15T02:51:22.599Z,1.08
2022-12-15T02:54:12.616Z,1.09
2022-12-15T02:56:54.260Z,1.06
2022-12-15T02:59:36.025Z,1.04
2022-12-15T03:02:09.593Z,1.03
2022-12-15T03:04:43.218Z,1.02
2022-12-15T03:07:14.667Z,1.02
2022-12-15T03:09:46.046Z,1.05
2022-12-15T03:12:17.533Z,1.02
2022-12-15T03:14:49.050Z,1.05
2022-12-15T03:17:20.478Z,1.06
2022-12-15T03:19:51.921Z,0.95
2022-12-15T03:22:23.398Z,1.07
2022-12-15T03:24:54.794Z,1.11
2022-12-15T03:27:26.241Z,1.13
2022-12-15T03:29:57.640Z,1.18
2022-12-15T03:32:29.661Z,1.20
2022-12-15T03:35:01.148Z,1.22
2022-12-15T03:37:32.576Z,1.19
2022-12-15T03:40:04.395Z,1.08
2022-12-15T03:42:35.796Z,1.11
2022-12-15T03:45:07.602Z,1.15
2022-12-15T03:47:42.548Z,1.20
2022-12-15T03:50:17.813Z,1.21
2022-12-15T03:52:54.220Z,1.23
2022-12-15T03:55:26.036Z,1.22
2022-12-15T03:57:57.994Z,1.23
2022-12-15T04:00:29.372Z,1.21
2022-12-15T04:03:00.884Z,1.25
2022-12-15T04:05:34.315Z,1.28
2022-12-15T04:08:06.097Z,1.32
2022-12-15T04:10:37.509Z,1.35
2022-12-15T04:13:10.327Z,1.38
2022-12-15T04:15:41.752Z,1.35
2022-12-15T04:18:13.240Z,1.32
2022-12-15T04:20:44.686Z,1.36
2022-12-15T04:23:16.142Z,1.34
2022-12-15T04:25:47.998Z,1.34
2022-12-15T04:28:19.420Z,1.39
2022-12-15T04:30:54.805Z,1.41
2022-12-15T04:33:30.552Z,1.39
2022-12-15T04:36:02.718Z,1.31
2022-12-15T04:38:34.426Z,1.29
2022-12-15T04:41:06.160Z,1.28
2022-12-15T04:43:37.661Z,1.22
2022-12-15T04:46:09.148Z,1.22
2022-12-15T04:48:40.582Z,1.20
2022-12-15T04:51:11.965Z,1.20
2022-12-15T04:53:44.749Z,1.14
2022-12-15T04:56:19.674Z,1.11
2022-12-15T04:58:51.076Z,1.07
2022-12-15T05:01:22.682Z,1.08
2022-12-15T05:03:54.246Z,1.09
2022-12-15T05:06:25.684Z,1.04
2022-12-15T05:08:57.130Z,1.01
2022-12-15T05:11:28.507Z,0.97
2022-12-15T05:13:59.906Z,0.85
2022-12-15T05:16:31.302Z,0.87
2022-12-15T05:19:02.709Z,0.86
2022-12-15T05:21:34.134Z,0.92
2022-12-15T05:24:05.802Z,0.99
2022-12-15T05:26:37.653Z,1.07
2022-12-15T05:29:09.081Z,1.06
2022-12-15T05:31:40.546Z,1.08
2022-12-15T05:34:12.302Z,1.03
2022-12-15T05:36:43.748Z,1.04
2022-12-15T05:39:15.145Z,1.04
2022-12-15T05:41:46.662Z,1.03
2022-12-15T05:44:18.631Z,1.03
2022-12-15T05:46:50.383Z,0.99
2022-12-15T05:49:21.836Z,0.98
2022-12-15T05:51:53.372Z,0.97
2022-12-15T05:54:24.797Z,0.95
2022-12-15T05:56:56.221Z,0.98
2022-12-15T05:59:27.669Z,1.00
2022-12-15T06:01:59.240Z,0.99
2022-12-15T06:04:30.723Z,0.98
2022-12-15T06:07:02.161Z,1.03
2022-12-15T06:09:33.541Z,1.06
2022-12-15T06:12:05.129Z,1.01
2022-12-15T06:14:36.532Z,1.16
2022-12-15T06:17:08.010Z,1.19
2022-12-15T06:19:39.453Z,1.38
2022-12-15T06:22:10.854Z,1.42
2022-12-15T06:24:42.264Z,1.46
2022-12-15T06:27:13.709Z,1.44
2022-12-15T06:29:45.176Z,1.57
2022-12-15T06:32:16.595Z,1.64
2022-12-15T06:34:48.451Z,1.76
2022-12-15T06:37:19.897Z,1.83
2022-12-15T06:39:51.312Z,1.85
2022-12-15T06:42:22.763Z,1.86
2022-12-15T06:44:54.184Z,1.87
2022-12-15T06:47:25.642Z,1.74
2022-12-15T06:49:57.094Z,1.88
2022-12-15T06:52:28.550Z,1.87
2022-12-15T06:54:59.962Z,1.86
2022-12-15T06:57:31.418Z,1.89
2022-12-15T07:00:04.681Z,1.89
2022-12-15T07:02:36.278Z,1.96
2022-12-15T07:05:07.994Z,2.01
2022-12-15T07:07:39.505Z,2.03
2022-12-15T07:10:10.937Z,1.99
2022-12-15T07:12:42.339Z,2.02
2022-12-15T07:15:13.829Z,1.98
2022-12-15T07:17:45.273Z,1.97
2022-12-15T07:20:16.961Z,1.98
2022-12-15T07:22:52.424Z,1.96
2022-12-15T07:25:24.211Z,1.98
2022-12-15T07:27:55.588Z,2.10
2022-12-15T07:30:27.294Z,2.13
2022-12-15T07:32:59.152Z,2.09
2022-12-15T07:35:31.588Z,2.15
2022-12-15T07:38:07.000Z,2.16
2022-12-15T07:40:38.450Z,2.22
2022-12-15T07:43:09.858Z,2.29
2022-12-15T07:45:42.797Z,2.25
2022-12-15T07:48:16.990Z,2.36
2022-12-15T07:50:48.395Z,2.52
2022-12-15T07:53:21.874Z,2.62
2022-12-15T07:56:07.341Z,2.64
2022-12-15T07:58:39.280Z,2.60
2022-12-15T08:01:13.508Z,2.63
2022-12-15T08:03:45.160Z,2.61
2022-12-15T08:06:16.822Z,2.66
2022-12-15T08:08:51.097Z,2.70
2022-12-15T08:11:23.229Z,2.70
2022-12-15T08:14:03.620Z,2.87
2022-12-15T08:16:35.878Z,2.92
2022-12-15T08:19:10.736Z,2.88
2022-12-15T08:21:43.546Z,3.02
2022-12-15T08:24:15.552Z,3.05
2022-12-15T08:26:50.569Z,3.06
2022-12-15T08:29:50.285Z,3.07
2022-12-15T08:32:13.632Z,2.93
2022-12-15T08:34:45.098Z,2.96
2022-12-15T08:37:16.975Z,2.98
2022-12-15T08:39:48.451Z,3.08
2022-12-15T08:42:19.855Z,3.01
2022-12-15T08:44:51.607Z,3.19
2022-12-15T08:47:23.039Z,3.15
2022-12-15T08:49:54.546Z,3.17
2022-12-15T08:52:25.995Z,3.00
2022-12-15T08:54:57.443Z,3.17
2022-12-15T08:57:28.819Z,3.30
2022-12-15T09:00:00.212Z,3.28
2022-12-15T09:02:32.402Z,3.43
2022-12-15T09:05:04.093Z,3.44
2022-12-15T09:07:35.641Z,3.50
2022-12-15T09:10:07.565Z,3.45
2022-12-15T09:12:38.985Z,3.36
2022-12-15T09:15:10.585Z,3.27
2022-12-15T09:17:42.039Z,3.55
2022-12-15T09:20:17.635Z,3.52
2022-12-15T09:22:50.487Z,3.73
2022-12-15T09:25:21.954Z,3.59
2022-12-15T09:27:53.392Z,3.58
2022-12-15T09:30:24.992Z,3.88
2022-12-15T09:32:56.561Z,4.01
2022-12-15T09:35:28.344Z,3.99
2022-12-15T09:37:59.774Z,4.26
2022-12-15T09:40:31.285Z,4.37
2022-12-15T09:43:32.772Z,4.63
2022-12-15T09:46:06.910Z,4.81
2022-12-15T09:48:41.606Z,4.85
2022-12-15T09:51:17.800Z,5.07
2022-12-15T09:53:56.961Z,5.15
2022-12-15T09:56:42.906Z,5.24
2022-12-15T09:59:29.046Z,5.19
2022-12-15T10:02:21.854Z,5.32
2022-12-15T10:05:12.128Z,5.51
2022-12-15T10:07:46.173Z,5.57
2022-12-15T10:10:42.955Z,5.62
2022-12-15T10:13:34.328Z,5.72
2022-12-15T10:16:17.397Z,5.83
2022-12-15T10:19:01.723Z,5.99
2022-12-15T10:21:34.077Z,6.18
2022-12-15T10:24:15.444Z,6.29
2022-12-15T10:27:02.736Z,6.33
2022-12-15T10:29:50.711Z,6.12
2022-12-15T10:32:57.833Z,6.02
2022-12-15T10:35:35.245Z,6.07
2022-12-15T10:38:21.684Z,6.19
2022-12-15T10:40:59.741Z,6.06
2022-12-15T10:43:36.164Z,6.16
2022-12-15T10:46:30.735Z,6.03
2022-12-15T10:49:07.934Z,5.89
2022-12-15T10:51:44.830Z,5.95
2022-12-15T10:54:18.137Z,6.07
2022-12-15T10:56:55.118Z,6.12
2022-12-15T10:59:32.050Z,6.29
2022-12-15T11:02:24.440Z,6.40
2022-12-15T11:05:11.599Z,6.49
2022-12-15T11:07:53.574Z,6.61
2022-12-15T11:10:28.616Z,6.69
2022-12-15T11:13:17.449Z,6.74
2022-12-15T11:15:53.467Z,6.84
2022-12-15T11:18:42.684Z,6.85
2022-12-15T11:21:22.457Z,6.91
2022-12-15T11:23:59.990Z,6.88
2022-12-15T11:26:40.402Z,6.86
2022-12-15T11:29:17.913Z,6.76
2022-12-15T11:31:51.745Z,6.57
2022-12-15T11:34:31.996Z,6.76
2022-12-15T11:37:36.438Z,6.44
2022-12-15T11:40:23.348Z,6.42
2022-12-15T11:43:09.931Z,6.31
2022-12-15T11:46:09.320Z,6.52
2022-12-15T11:48:49.380Z,6.56
2022-12-15T11:51:55.903Z,6.65
2022-12-15T11:54:37.012Z,6.63
2022-12-15T11:57:23.719Z,6.53
2022-12-15T12:00:05.580Z,6.65
2022-12-15T12:03:10.679Z,6.78
2022-12-15T12:06:08.747Z,6.88
2022-12-15T12:09:02.949Z,6.96
2022-12-15T12:11:48.837Z,6.94
2022-12-15T12:14:52.837Z,7.01
2022-12-15T12:17:51.744Z,6.95
2022-12-15T12:20:43.717Z,6.81
2022-12-15T12:23:21.700Z,6.89
2022-12-15T12:26:12.476Z,6.87
2022-12-15T12:29:00.933Z,6.87
2022-12-15T12:31:46.867Z,6.86
2022-12-15T12:34:46.584Z,6.86
2022-12-15T12:37:36.292Z,6.83
2022-12-15T12:40:30.922Z,6.81
2022-12-15T12:43:08.655Z,6.84
2022-12-15T12:45:51.729Z,6.69
2022-12-15T12:48:34.053Z,6.74
2022-12-15T12:51:28.828Z,6.91
2022-12-15T12:54:01.023Z,6.88
2022-12-15T12:56:50.452Z,6.74
2022-12-15T12:59:28.251Z,6.65
2022-12-15T13:02:15.261Z,6.68
2022-12-15T13:05:09.355Z,6.71
2022-12-15T13:07:41.124Z,7.01
2022-12-15T13:10:21.472Z,7.07
2022-12-15T13:12:55.414Z,7.21
2022-12-15T13:15:29.567Z,7.15
2022-12-15T13:18:07.375Z,7.17
2022-12-15T13:20:40.052Z,6.90
2022-12-15T13:23:20.291Z,7.17
2022-12-15T13:25:57.520Z,7.30
2022-12-15T13:28:43.386Z,7.38
2022-12-15T13:31:25.857Z,7.11
2022-12-15T13:34:18.130Z,7.29
2022-12-15T13:36:55.052Z,7.30
2022-12-15T13:39:29.849Z,7.47
2022-12-15T13:42:32.095Z,7.74
2022-12-15T13:44:57.408Z,7.88
2022-12-15T13:47:30.052Z,7.89
2022-12-15T13:50:03.357Z,8.19
2022-12-15T13:55:52.218Z,8.30
2022-12-15T13:58:24.669Z,8.25
2022-12-15T14:00:57.522Z,8.44
2022-12-15T14:03:29.054Z,8.68
2022-12-15T14:06:01.386Z,8.85
2022-12-15T14:08:32.897Z,8.92
2022-12-15T14:11:22.484Z,9.00
2022-12-15T14:14:00.372Z,8.76
2022-12-15T14:16:34.696Z,8.75
2022-12-15T14:19:14.320Z,8.66
2022-12-15T14:21:53.521Z,8.62
2022-12-15T14:24:40.445Z,8.61
2022-12-15T14:27:26.209Z,8.62
2022-12-15T14:30:23.867Z,8.49
2022-12-15T14:32:58.192Z,8.25
2022-12-15T14:35:37.644Z,8.16
2022-12-15T14:38:16.645Z,8.21
2022-12-15T14:40:50.597Z,8.23
2022-12-15T14:43:31.984Z,8.17
2022-12-15T14:46:11.232Z,8.14
2022-12-15T14:49:02.961Z,8.09
2022-12-15T14:51:44.143Z,7.87
2022-12-15T14:54:36.053Z,7.73
2022-12-15T14:57:13.667Z,7.68
2022-12-15T14:59:46.225Z,7.63
2022-12-15T15:02:24.314Z,7.38
2022-12-15T15:04:56.966Z,7.32
2022-12-15T15:07:29.130Z,7.29
2022-12-15T15:10:19.981Z,7.20
2022-12-15T15:12:52.925Z,7.28
2022-12-15T15:15:26.539Z,7.21
2022-12-15T15:17:59.769Z,7.14
2022-12-15T15:20:33.893Z,7.17
2022-12-15T15:23:08.264Z,7.15
2022-12-15T15:26:05.861Z,6.86
2022-12-15T15:28:42.882Z,6.73
2022-12-15T15:31:41.315Z,6.72
2022-12-15T15:34:13.079Z,6.79
2022-12-15T15:36:44.669Z,6.79
2022-12-15T15:39:16.117Z,6.76
2022-12-15T15:41:47.582Z,6.72
2022-12-15T15:44:18.968Z,6.65
2022-12-15T15:46:52.416Z,6.56
2022-12-15T15:49:23.866Z,6.48
2022-12-15T15:51:56.380Z,6.42
2022-12-15T15:54:35.052Z,6.31
2022-12-15T15:57:06.486Z,6.24
2022-12-15T15:59:37.914Z,6.17
2022-12-15T16:02:11.404Z,6.11
2022-12-15T16:04:44.025Z,6.03
2022-12-15T16:07:22.077Z,5.93
2022-12-15T16:09:54.560Z,5.86
2022-12-15T16:12:35.908Z,5.79
2022-12-15T16:15:18.897Z,5.71
2022-12-15T16:17:50.331Z,5.63
2022-12-15T16:20:24.801Z,5.56
2022-12-15T16:23:02.100Z,5.49
2022-12-15T16:25:46.903Z,5.38
2022-12-15T16:28:23.728Z,5.33
2022-12-15T16:30:56.582Z,5.30
2022-12-15T16:33:28.202Z,5.22
2022-12-15T16:35:59.661Z,5.16
2022-12-15T16:38:32.281Z,5.10
2022-12-15T16:41:10.681Z,5.05
2022-12-15T16:43:47.726Z,4.96
2022-12-15T16:46:19.910Z,4.90
2022-12-15T16:48:51.884Z,4.89
2022-12-15T16:51:44.890Z,4.82
2022-12-15T16:54:25.717Z,4.77
2022-12-15T16:56:58.751Z,4.69
2022-12-15T16:59:34.660Z,4.71
2022-12-15T17:02:24.435Z,4.72
2022-12-15T17:04:56.125Z,4.73
2022-12-15T17:07:27.979Z,4.73
2022-12-15T17:09:59.605Z,4.75
2022-12-15T17:12:31.767Z,4.77
2022-12-15T17:15:03.501Z,4.85
2022-12-15T17:17:34.904Z,4.87
2022-12-15T17:23:04.473Z,4.81
2022-12-15T17:26:17.238Z,4.23
2022-12-15T17:28:33.519Z,4.73
2022-12-15T17:31:05.115Z,4.89
2022-12-15T17:33:36.596Z,5.09
2022-12-15T17:36:16.152Z,5.19
2022-12-15T17:38:55.273Z,5.25
2022-12-15T17:41:59.186Z,5.28
2022-12-15T17:44:34.984Z,5.34
2022-12-15T17:47:08.580Z,5.40
2022-12-15T17:49:40.429Z,5.50
2022-12-15T17:52:31.215Z,5.58
2022-12-15T17:55:04.036Z,5.61
2022-12-15T17:57:35.534Z,5.66
2022-12-15T18:00:31.450Z,5.64
2022-12-15T18:03:03.035Z,5.62
2022-12-15T18:05:34.988Z,5.64
2022-12-15T18:08:26.723Z,5.63
2022-12-15T18:10:58.200Z,5.61
2022-12-15T18:13:35.028Z,5.59
2022-12-15T18:16:07.131Z,5.54
2022-12-15T18:18:38.609Z,5.50
2022-12-15T18:21:15.263Z,5.50
2022-12-15T18:23:47.244Z,5.48
2022-12-15T18:26:18.679Z,5.46
2022-12-15T18:28:50.129Z,5.45
2022-12-15T18:31:25.594Z,5.41
2022-12-15T18:34:04.017Z,5.37
2022-12-15T18:36:36.289Z,5.36
2022-12-15T18:39:22.961Z,5.32
2022-12-15T18:41:54.382Z,5.28
2022-12-15T18:44:28.909Z,5.22
2022-12-15T18:47:00.362Z,5.18
2022-12-15T18:49:31.829Z,5.12
2022-12-15T18:52:03.328Z,5.06
2022-12-15T18:54:35.304Z,4.99
2022-12-15T18:57:25.668Z,4.94
2022-12-15T19:00:06.680Z,4.89
2022-12-15T19:02:38.373Z,4.86
2022-12-15T19:05:10.351Z,4.82
2022-12-15T19:07:41.787Z,4.76
2022-12-15T19:10:14.545Z,4.72
2022-12-15T19:12:45.997Z,4.70
2022-12-15T19:15:19.008Z,4.66
2022-12-15T19:17:50.453Z,4.65
2022-12-15T19:20:22.437Z,4.67
2022-12-15T19:22:53.837Z,4.65
2022-12-15T19:25:29.411Z,4.62
2022-12-15T19:28:01.275Z,4.59
2022-12-15T19:30:38.518Z,4.57
2022-12-15T19:33:12.859Z,4.55
2022-12-15T19:35:51.279Z,4.55
2022-12-15T19:38:29.620Z,4.54
2022-12-15T19:41:01.057Z,4.56
2022-12-15T19:43:32.913Z,4.53
2022-12-15T19:46:04.801Z,4.54
2022-12-15T19:48:36.208Z,4.54
2022-12-15T19:51:13.361Z,4.57
2022-12-15T19:53:46.601Z,4.59
2022-12-15T19:56:21.929Z,4.56
2022-12-15T19:58:53.405Z,4.55
2022-12-15T20:01:24.996Z,4.59
2022-12-15T20:03:57.007Z,4.67
2022-12-15T20:06:28.585Z,4.71
2022-12-15T20:08:59.982Z,4.78
2022-12-15T20:11:32.758Z,4.83
2022-12-15T20:14:12.023Z,4.58
2022-12-15T20:16:44.336Z,4.67
2022-12-15T20:19:17.181Z,4.82
2022-12-15T20:21:48.657Z,4.89
2022-12-15T20:24:20.134Z,4.87
2022-12-15T20:26:51.571Z,4.91
2022-12-15T20:29:26.181Z,4.80
2022-12-15T20:32:00.343Z,4.80
2022-12-15T20:34:31.832Z,4.51
2022-12-15T20:37:04.357Z,4.80
2022-12-15T20:39:35.809Z,4.94
2022-12-15T20:42:13.729Z,4.99
2022-12-15T20:44:45.184Z,4.90
2022-12-15T20:47:23.552Z,5.02
2022-12-15T20:49:55.394Z,5.04
2022-12-15T20:52:27.118Z,5.07
2022-12-15T20:54:58.526Z,5.07
2022-12-15T20:57:29.971Z,5.10
2022-12-15T21:00:01.467Z,5.14
2022-12-15T21:02:33.017Z,5.18
2022-12-15T21:05:04.864Z,5.17
2022-12-15T21:07:36.341Z,4.87
2022-12-15T21:10:08.856Z,4.86
2022-12-15T21:12:41.085Z,4.59
2022-12-15T21:15:22.249Z,4.80
2022-12-15T21:18:19.825Z,4.97
2022-12-15T21:20:49.774Z,5.13
2022-12-15T21:23:26.767Z,5.24
2022-12-15T21:26:01.412Z,5.36
2022-12-15T21:28:33.273Z,5.45
2022-12-15T21:31:05.021Z,5.50
2022-12-15T21:33:36.476Z,5.52
2022-12-15T21:36:13.722Z,5.56
2022-12-15T21:38:50.176Z,5.58
2022-12-15T21:41:23.499Z,5.63
2022-12-15T21:43:55.042Z,5.66
2022-12-15T21:46:28.431Z,5.62
2022-12-15T21:49:00.189Z,5.63
2022-12-15T21:51:38.046Z,5.69
2022-12-15T21:54:26.007Z,5.70
2022-12-15T21:57:01.031Z,5.69
2022-12-15T21:59:32.940Z,5.68
2022-12-15T22:02:26.631Z,5.62
2022-12-15T22:04:58.212Z,5.62
2022-12-15T22:07:29.656Z,5.48
2022-12-15T22:10:01.105Z,5.55
2022-12-15T22:12:32.589Z,5.57
2022-12-15T22:15:04.365Z,5.58
2022-12-15T22:17:35.835Z,5.55
2022-12-15T22:20:13.764Z,5.53
2022-12-15T22:22:46.077Z,5.51
2022-12-15T22:25:23.296Z,5.60
2022-12-15T22:27:55.127Z,5.60
2022-12-15T22:30:26.877Z,5.64
2022-12-15T22:32:58.312Z,5.68
2022-12-15T22:35:29.702Z,5.65
2022-12-15T22:38:01.127Z,5.65
2022-12-15T22:40:32.609Z,5.60
2022-12-15T22:43:04.915Z,5.58
2022-12-15T22:45:41.181Z,5.55
2022-12-15T22:48:14.936Z,5.48
2022-12-15T22:50:46.352Z,5.45
2022-12-15T22:53:19.085Z,5.48
2022-12-15T22:55:50.514Z,5.44
2022-12-15T22:58:36.486Z,5.32
2022-12-15T23:01:10.033Z,5.35
2022-12-15T23:03:41.451Z,5.22
2022-12-15T23:06:12.950Z,5.18
2022-12-15T23:08:44.395Z,5.21
2022-12-15T23:11:15.805Z,5.05
2022-12-15T23:13:47.295Z,5.18
2022-12-15T23:16:18.868Z,5.18
2022-12-15T23:18:55.134Z,5.18
2022-12-15T23:21:26.634Z,5.15
2022-12-15T23:23:58.102Z,5.09
2022-12-15T23:26:29.556Z,4.94
2022-12-15T23:29:00.989Z,5.07
2022-12-15T23:31:32.502Z,4.68
2022-12-15T23:34:04.083Z,5.02
2022-12-15T23:36:35.626Z,4.78
2022-12-15T23:39:07.128Z,4.90
2022-12-15T23:41:40.251Z,4.97
2022-12-15T23:44:11.636Z,4.89
2022-12-15T23:46:43.065Z,4.89
2022-12-15T23:49:14.531Z,4.81
2022-12-15T23:51:45.910Z,4.88
2022-12-15T23:54:17.342Z,4.90
2022-12-15T23:56:48.794Z,4.96
2022-12-15T23:59:20.378Z,5.00
